createdAt,value
2019-01-17T00:00:29.354Z,87.91
2019-01-17T00:01:29.355Z,87.53
2019-01-17T00:02:29.374Z,86.87
2019-01-17T00:03:29.395Z,86.49
2019-01-17T00:04:29.394Z,86.96
2019-01-17T00:05:29.404Z,86.49
2019-01-17T00:06:29.418Z,86.11
2019-01-17T00:07:29.429Z,86.01
2019-01-17T00:08:29.444Z,85.16
2019-01-17T00:09:29.455Z,84.97
2019-01-17T00:10:29.466Z,84.40
2019-01-17T00:11:29.504Z,83.83
2019-01-17T00:12:29.491Z,84.11
2019-01-17T00:13:29.508Z,83.73
2019-01-17T00:14:29.518Z,83.54
2019-01-17T00:15:29.531Z,82.31
2019-01-17T00:16:29.567Z,82.21
2019-01-17T00:17:29.606Z,80.69
2019-01-17T00:18:29.574Z,81.26
2019-01-17T00:19:29.602Z,80.79
2019-01-17T00:20:29.590Z,80.60
2019-01-17T00:21:29.618Z,79.94
2019-01-17T00:22:29.714Z,79.65
2019-01-17T00:23:29.624Z,79.27
2019-01-17T00:24:29.649Z,79.65
2019-01-17T00:25:29.654Z,79.17
2019-01-17T00:26:29.667Z,79.17
2019-01-17T00:27:29.684Z,79.65
2019-01-17T00:28:29.695Z,80.60
2019-01-17T00:29:29.704Z,80.79
2019-01-17T00:30:29.715Z,80.98
2019-01-17T00:31:29.735Z,80.79
2019-01-17T00:32:29.741Z,81.84
2019-01-17T00:33:29.752Z,81.65
2019-01-17T00:34:29.763Z,81.74
2019-01-17T00:35:29.793Z,81.17
2019-01-17T00:36:29.892Z,79.74
2019-01-17T00:37:29.808Z,80.32
2019-01-17T00:38:29.814Z,80.22
2019-01-17T00:39:29.822Z,79.65
2019-01-17T00:40:29.838Z,79.84
2019-01-17T00:41:29.859Z,79.65
2019-01-17T00:42:29.862Z,79.36
2019-01-17T00:43:29.895Z,79.36
2019-01-17T00:44:29.898Z,78.99
2019-01-17T00:45:29.901Z,79.46
2019-01-17T00:46:29.912Z,79.55
2019-01-17T00:47:29.925Z,78.42
2019-01-17T00:48:29.973Z,78.99
2019-01-17T00:49:29.948Z,79.36
2019-01-17T00:50:29.962Z,79.17
2019-01-17T00:51:29.975Z,79.46
2019-01-17T00:52:29.989Z,79.17
2019-01-17T00:53:29.996Z,78.89
2019-01-17T00:54:30.042Z,79.08
2019-01-17T00:55:30.027Z,78.80
2019-01-17T00:56:30.039Z,79.08
2019-01-17T00:57:30.055Z,79.27
2019-01-17T00:58:30.061Z,79.08
2019-01-17T00:59:30.085Z,79.08
2019-01-17T01:00:30.086Z,79.17
2019-01-17T01:01:30.101Z,79.08
2019-01-17T01:02:30.113Z,79.17
2019-01-17T01:03:30.123Z,79.94
2019-01-17T01:04:30.139Z,80.13
2019-01-17T01:05:30.154Z,79.55
2019-01-17T01:06:30.160Z,79.36
2019-01-17T01:07:30.176Z,79.17
2019-01-17T01:08:30.186Z,79.17
2019-01-17T01:09:30.197Z,79.27
2019-01-17T01:10:30.213Z,79.17
2019-01-17T01:11:30.225Z,79.17
2019-01-17T01:12:30.232Z,78.89
2019-01-17T01:13:30.249Z,78.99
2019-01-17T01:14:30.256Z,78.36
2019-01-17T01:15:30.274Z,78.64
2019-01-17T01:16:30.283Z,78.42
2019-01-17T01:17:30.294Z,78.93
2019-01-17T01:18:30.336Z,78.70
2019-01-17T01:19:30.325Z,78.42
2019-01-17T01:20:30.335Z,78.03
2019-01-17T01:21:30.346Z,77.75
2019-01-17T01:22:30.360Z,77.37
2019-01-17T01:23:30.369Z,77.66
2019-01-17T01:24:30.383Z,76.99
2019-01-17T01:25:30.394Z,76.42
2019-01-17T01:26:30.421Z,75.95
2019-01-17T01:27:30.416Z,75.47
2019-01-17T01:28:30.480Z,75.47
2019-01-17T01:29:30.453Z,75.57
2019-01-17T01:30:30.466Z,75.19
2019-01-17T01:31:30.506Z,74.71
2019-01-17T01:32:30.484Z,74.52
2019-01-17T01:33:30.492Z,73.48
2019-01-17T01:34:30.505Z,73.38
2019-01-17T01:35:30.518Z,73.67
2019-01-17T01:36:30.527Z,73.67
2019-01-17T01:37:30.543Z,73.67
2019-01-17T01:38:30.554Z,73.00
2019-01-17T01:39:30.569Z,73.29
2019-01-17T01:40:30.582Z,73.29
2019-01-17T01:41:30.597Z,73.48
2019-01-17T01:42:30.604Z,72.91
2019-01-17T01:43:30.691Z,73.67
2019-01-17T01:44:30.631Z,73.19
2019-01-17T01:45:30.669Z,73.67
2019-01-17T01:46:30.655Z,73.48
2019-01-17T01:47:30.672Z,73.67
2019-01-17T01:48:30.683Z,73.76
2019-01-17T01:49:30.695Z,73.57
2019-01-17T01:50:30.706Z,73.19
2019-01-17T01:51:30.717Z,73.19
2019-01-17T01:52:30.727Z,73.57
2019-01-17T01:53:30.741Z,73.29
2019-01-17T01:54:30.757Z,73.29
2019-01-17T01:55:30.763Z,73.76
2019-01-17T01:56:30.778Z,73.76
2019-01-17T01:57:30.794Z,74.24
2019-01-17T01:58:30.809Z,74.18
2019-01-17T01:59:30.820Z,73.80
2019-01-17T02:00:30.829Z,74.08
2019-01-17T02:01:30.842Z,74.62
2019-01-17T02:02:30.859Z,74.71
2019-01-17T02:03:30.867Z,73.76
2019-01-17T02:04:30.881Z,74.33
2019-01-17T02:05:30.888Z,74.24
2019-01-17T02:06:30.906Z,73.67
2019-01-17T02:07:30.918Z,73.48
2019-01-17T02:08:30.936Z,73.38
2019-01-17T02:09:30.943Z,73.00
2019-01-17T02:10:30.954Z,73.57
2019-01-17T02:11:30.964Z,73.67
2019-01-17T02:12:30.987Z,73.67
2019-01-17T02:13:30.988Z,73.67
2019-01-17T02:14:31.005Z,73.19
2019-01-17T02:15:31.017Z,73.10
2019-01-17T02:16:31.033Z,73.42
2019-01-17T02:17:31.041Z,72.91
2019-01-17T02:18:31.056Z,73.42
2019-01-17T02:19:31.101Z,73.29
2019-01-17T02:20:31.077Z,73.42
2019-01-17T02:21:31.096Z,73.48
2019-01-17T02:22:31.103Z,73.71
2019-01-17T02:23:31.120Z,73.80
2019-01-17T02:24:31.201Z,74.47
2019-01-17T02:25:31.144Z,74.56
2019-01-17T02:26:31.152Z,74.37
2019-01-17T02:27:31.163Z,74.75
2019-01-17T02:28:31.179Z,73.90
2019-01-17T02:29:31.247Z,73.99
2019-01-17T02:30:31.255Z,74.37
2019-01-17T02:31:31.225Z,74.05
2019-01-17T02:32:31.229Z,73.90
2019-01-17T02:33:31.244Z,73.71
2019-01-17T02:34:31.251Z,73.80
2019-01-17T02:35:31.277Z,73.67
2019-01-17T02:36:31.279Z,73.71
2019-01-17T02:37:31.305Z,74.56
2019-01-17T02:38:31.338Z,73.80
2019-01-17T02:39:31.336Z,74.37
2019-01-17T02:40:31.353Z,74.56
2019-01-17T02:41:31.342Z,74.56
2019-01-17T02:42:31.358Z,74.75
2019-01-17T02:43:31.368Z,75.13
2019-01-17T02:44:31.375Z,74.85
2019-01-17T02:45:31.390Z,74.85
2019-01-17T02:46:31.406Z,74.08
2019-01-17T02:47:31.417Z,73.99
2019-01-17T02:48:31.459Z,74.75
2019-01-17T02:49:31.461Z,74.56
2019-01-17T02:50:31.453Z,74.18
2019-01-17T02:51:31.497Z,74.66
2019-01-17T02:52:31.495Z,74.47
2019-01-17T02:53:31.509Z,74.75
2019-01-17T02:54:35.674Z,74.75
2019-01-17T02:55:31.518Z,74.66
2019-01-17T02:56:31.599Z,74.66
2019-01-17T02:57:31.574Z,74.47
2019-01-17T02:58:31.558Z,74.75
2019-01-17T02:59:31.578Z,74.66
2019-01-17T03:00:31.580Z,74.75
2019-01-17T03:01:31.591Z,74.47
2019-01-17T03:02:31.607Z,74.47
2019-01-17T03:03:31.629Z,74.85
2019-01-17T03:04:31.652Z,74.27
2019-01-17T03:05:31.649Z,74.66
2019-01-17T03:06:31.664Z,73.71
2019-01-17T03:07:31.666Z,74.27
2019-01-17T03:08:31.681Z,74.08
2019-01-17T03:38:11.407Z,72.44
2019-01-17T03:39:11.381Z,72.06
2019-01-17T03:41:03.311Z,71.86
2019-01-17T03:42:03.311Z,71.96
2019-01-17T03:43:55.229Z,71.48
2019-01-17T03:44:55.212Z,71.20
2019-01-17T03:46:47.115Z,70.82
2019-01-17T03:47:47.122Z,70.54
2019-01-17T03:49:39.049Z,70.92
2019-01-17T03:50:39.034Z,70.82
2019-01-17T03:52:30.937Z,70.82
2019-01-17T03:53:30.933Z,71.11
2019-01-17T03:55:22.896Z,72.06
2019-01-17T03:56:22.869Z,71.86
2019-01-17T03:58:14.777Z,71.39
2019-01-17T03:59:14.749Z,71.48
2019-01-17T04:01:06.670Z,71.11
2019-01-17T04:02:06.680Z,71.58
2019-01-17T04:03:58.602Z,71.20
2019-01-17T04:04:58.586Z,71.20
2019-01-17T04:06:50.490Z,71.96
2019-01-17T04:07:50.506Z,72.15
2019-01-17T04:09:42.450Z,72.34
2019-01-17T04:10:42.435Z,72.15
2019-01-17T04:12:34.378Z,72.63
2019-01-17T04:13:34.377Z,72.72
2019-01-17T04:15:26.329Z,73.10
2019-01-17T04:16:26.313Z,73.38
2019-01-17T04:18:18.228Z,72.81
2019-01-17T04:19:18.225Z,72.81
2019-01-17T04:21:10.156Z,72.15
2019-01-17T04:22:10.145Z,71.30
2019-01-17T04:24:02.083Z,70.54
2019-01-17T04:25:02.062Z,70.15
2019-01-17T04:26:53.978Z,70.06
2019-01-17T04:27:53.965Z,70.82
2019-01-17T04:29:45.893Z,71.11
2019-01-17T04:30:45.876Z,71.30
2019-01-17T04:32:37.773Z,72.15
2019-01-17T04:33:37.785Z,71.86
2019-01-17T04:35:29.713Z,72.06
2019-01-17T04:36:29.717Z,71.86
2019-01-17T04:38:21.733Z,72.95
2019-01-17T04:39:21.633Z,73.04
2019-01-17T04:41:13.560Z,74.18
2019-01-17T04:42:13.552Z,73.99
2019-01-17T04:44:05.479Z,73.99
2019-01-17T04:45:05.463Z,74.85
2019-01-17T04:46:57.370Z,74.75
2019-01-17T04:47:57.381Z,74.18
2019-01-17T04:49:49.320Z,74.08
2019-01-17T04:50:49.291Z,74.47
2019-01-17T04:52:41.200Z,74.75
2019-01-17T04:53:41.207Z,75.42
2019-01-17T04:55:33.126Z,75.60
2019-01-17T04:56:33.117Z,74.81
2019-01-17T04:58:25.029Z,74.37
2019-01-17T04:59:25.035Z,74.81
2019-01-17T05:01:17.009Z,74.15
2019-01-17T05:02:16.947Z,73.96
2019-01-17T05:04:08.857Z,73.33
2019-01-17T05:05:08.858Z,73.38
2019-01-17T05:07:00.791Z,73.48
2019-01-17T05:08:00.770Z,73.96
2019-01-17T05:09:52.703Z,74.62
2019-01-17T05:10:52.689Z,74.71
2019-01-17T05:12:44.602Z,74.33
2019-01-17T05:13:44.601Z,73.76
2019-01-17T05:15:36.535Z,73.57
2019-01-17T05:16:36.535Z,73.29
2019-01-17T05:18:28.472Z,72.81
2019-01-17T05:19:28.427Z,72.34
2019-01-17T05:21:20.348Z,72.44
2019-01-17T05:22:20.363Z,72.06
2019-01-17T05:24:12.246Z,72.53
2019-01-17T05:25:13.030Z,73.10
2019-01-17T05:27:04.200Z,73.19
2019-01-17T05:28:04.178Z,73.19
2019-01-17T05:29:57.653Z,73.38
2019-01-17T05:30:56.093Z,73.48
2019-01-17T05:32:48.023Z,73.19
2019-01-17T05:33:48.010Z,73.19
2019-01-17T05:35:39.947Z,72.72
2019-01-17T05:36:40.023Z,72.44
2019-01-17T05:38:31.837Z,73.67
2019-01-17T05:39:31.842Z,74.05
2019-01-17T05:41:23.816Z,74.52
2019-01-17T05:42:23.813Z,74.62
2019-01-17T05:44:15.687Z,74.43
2019-01-17T05:45:15.665Z,74.62
2019-01-17T05:47:07.596Z,74.33
2019-01-17T05:48:07.583Z,74.52
2019-01-17T05:49:59.487Z,75.57
2019-01-17T05:50:59.490Z,76.80
2019-01-17T05:52:51.415Z,78.51
2019-01-17T05:53:51.445Z,78.61
2019-01-17T05:55:43.331Z,77.37
2019-01-17T05:56:43.316Z,75.85
2019-01-17T05:58:35.215Z,75.47
2019-01-17T05:59:35.239Z,75.76
2019-01-17T06:01:27.167Z,76.32
2019-01-17T06:02:27.156Z,76.42
2019-01-17T06:04:19.059Z,77.18
2019-01-17T06:05:19.063Z,76.32
2019-01-17T06:07:10.987Z,77.37
2019-01-17T06:08:10.971Z,76.99
2019-01-17T06:10:04.395Z,77.75
2019-01-17T06:11:04.397Z,78.32
2019-01-17T06:12:56.327Z,78.80
2019-01-17T06:13:56.314Z,77.75
2019-01-17T06:15:48.227Z,77.84
2019-01-17T06:16:48.216Z,77.56
2019-01-17T06:18:40.143Z,77.47
2019-01-17T06:19:40.131Z,76.90
2019-01-17T06:21:32.075Z,77.43
2019-01-17T06:22:32.067Z,75.81
2019-01-17T06:24:23.987Z,75.43
2019-01-17T06:25:27.997Z,74.58
2019-01-17T06:27:15.904Z,73.35
2019-01-17T06:28:15.881Z,72.68
2019-01-17T06:30:07.783Z,72.68
2019-01-17T06:31:07.790Z,72.88
2019-01-17T06:32:59.720Z,73.96
2019-01-17T06:33:59.702Z,74.49
2019-01-17T06:35:51.606Z,76.23
2019-01-17T06:36:51.611Z,77.84
2019-01-17T06:38:43.540Z,78.89
2019-01-17T06:39:43.520Z,79.46
2019-01-17T06:41:35.466Z,80.69
2019-01-17T06:42:35.447Z,81.79
2019-01-17T06:44:27.349Z,82.21
2019-01-17T06:45:27.359Z,81.98
2019-01-17T06:47:22.286Z,81.41
2019-01-17T06:48:22.274Z,80.94
2019-01-17T06:50:14.172Z,79.80
2019-01-17T06:51:14.176Z,79.80
2019-01-17T06:53:06.114Z,78.85
2019-01-17T06:54:06.163Z,79.14
2019-01-17T06:55:57.992Z,78.09
2019-01-17T06:56:57.994Z,77.81
2019-01-17T06:58:49.944Z,78.95
2019-01-17T06:59:49.913Z,79.99
2019-01-17T07:01:41.884Z,81.04
2019-01-17T07:02:41.886Z,80.94
2019-01-17T07:04:33.809Z,81.36
2019-01-17T07:05:33.793Z,82.03
2019-01-17T07:07:25.721Z,82.21
2019-01-17T07:08:25.709Z,82.03
2019-01-17T07:10:17.718Z,82.88
2019-01-17T07:11:17.642Z,83.83
2019-01-17T07:13:09.542Z,84.59
2019-01-17T07:14:09.536Z,85.44
2019-01-17T07:16:01.437Z,86.20
2019-01-17T07:17:01.524Z,85.53
2019-01-17T07:18:53.378Z,85.91
2019-01-17T07:19:53.348Z,85.82
2019-01-17T07:21:45.257Z,86.49
2019-01-17T07:22:45.267Z,87.24
2019-01-17T07:24:37.685Z,87.53
2019-01-17T07:25:41.105Z,87.43
2019-01-17T07:27:29.591Z,88.20
2019-01-17T07:28:29.584Z,88.76
2019-01-17T07:30:21.478Z,88.48
2019-01-17T07:31:21.490Z,88.48
2019-01-17T07:33:13.421Z,89.14
2019-01-17T07:34:13.402Z,89.24
2019-01-17T07:36:05.322Z,89.05
2019-01-17T07:37:05.330Z,88.10
2019-01-17T07:38:57.317Z,88.39
2019-01-17T07:39:57.303Z,88.10
2019-01-17T07:41:49.210Z,88.10
2019-01-17T07:42:49.245Z,88.57
2019-01-17T07:44:41.159Z,88.48
2019-01-17T07:45:41.130Z,88.67
2019-01-17T07:47:33.571Z,88.20
2019-01-17T07:48:33.569Z,87.62
2019-01-17T07:50:25.997Z,87.05
2019-01-17T07:51:25.983Z,86.44
2019-01-17T07:53:17.939Z,85.30
2019-01-17T07:54:17.921Z,84.45
2019-01-17T07:56:10.322Z,83.88
2019-01-17T07:57:10.334Z,83.03
2019-01-17T07:59:02.752Z,81.79
2019-01-17T08:00:02.751Z,81.13
2019-01-17T08:01:54.647Z,78.66
2019-01-17T08:02:54.650Z,78.66
2019-01-17T08:04:46.593Z,78.47
2019-01-17T08:05:46.580Z,78.56
2019-01-17T08:07:38.473Z,79.61
2019-01-17T08:08:38.467Z,79.71
2019-01-17T08:10:30.406Z,80.27
2019-01-17T08:11:30.390Z,81.23
2019-01-17T08:13:22.833Z,82.08
2019-01-17T08:14:22.814Z,82.36
2019-01-17T08:16:14.739Z,82.36
2019-01-17T08:17:14.728Z,82.27
2019-01-17T08:19:06.699Z,81.70
2019-01-17T08:20:07.376Z,81.98
2019-01-17T08:21:59.086Z,81.79
2019-01-17T08:22:59.095Z,81.79
2019-01-17T08:24:51.577Z,81.36
2019-01-17T08:25:54.331Z,81.65
2019-01-17T08:27:44.466Z,82.97
2019-01-17T08:28:43.545Z,83.83
2019-01-17T08:30:35.883Z,85.06
2019-01-17T08:31:35.747Z,85.82
2019-01-17T08:33:28.270Z,86.01
2019-01-17T08:34:28.358Z,86.20
2019-01-17T08:36:19.703Z,87.05
2019-01-17T08:37:19.719Z,87.24
2019-01-17T08:39:11.613Z,88.01
2019-01-17T08:40:11.603Z,88.29
2019-01-17T08:42:03.510Z,89.14
2019-01-17T08:43:03.503Z,89.81
2019-01-17T08:44:55.426Z,91.94
2019-01-17T08:45:55.419Z,91.94
2019-01-17T08:47:47.320Z,91.28
2019-01-17T08:48:47.325Z,92.61
2019-01-17T08:50:39.256Z,93.65
2019-01-17T08:51:39.249Z,93.75
2019-01-17T08:53:31.149Z,94.42
2019-01-17T08:54:31.155Z,94.23
2019-01-17T08:56:23.079Z,94.51
2019-01-17T08:57:23.060Z,94.51
2019-01-17T08:59:15.002Z,94.70
2019-01-17T09:00:14.971Z,95.65
2019-01-17T09:02:06.894Z,95.94
2019-01-17T09:03:06.892Z,94.98
2019-01-17T09:04:58.799Z,93.46
2019-01-17T09:05:58.793Z,94.32
2019-01-17T09:07:51.210Z,91.94
2019-01-17T09:08:51.255Z,90.90
2019-01-17T09:10:43.131Z,89.47
2019-01-17T09:11:43.119Z,88.71
2019-01-17T09:13:35.238Z,88.53
2019-01-17T09:14:35.032Z,88.15
2019-01-17T09:16:27.429Z,89.47
2019-01-17T09:17:26.991Z,88.90
2019-01-17T09:19:18.875Z,86.82
2019-01-17T09:20:18.883Z,86.01
2019-01-17T09:22:10.808Z,83.78
2019-01-17T09:23:10.794Z,81.87
2019-01-17T09:25:02.729Z,81.78
2019-01-17T09:26:07.481Z,81.68
2019-01-17T09:27:54.606Z,79.65
2019-01-17T09:28:54.623Z,77.89
2019-01-17T09:30:46.543Z,79.46
2019-01-17T09:31:46.537Z,79.65
2019-01-17T09:33:38.708Z,80.41
2019-01-17T09:34:38.531Z,80.41
2019-01-17T09:36:30.534Z,82.31
2019-01-17T09:37:30.521Z,82.12
2019-01-17T09:39:22.445Z,81.26
2019-01-17T09:40:22.499Z,79.65
2019-01-17T09:42:14.380Z,78.51
2019-01-17T09:43:14.381Z,78.13
2019-01-17T09:45:06.306Z,75.28
2019-01-17T09:46:06.295Z,76.71
2019-01-17T09:47:58.218Z,74.81
2019-01-17T09:48:58.202Z,73.67
2019-01-17T09:50:50.157Z,72.91
2019-01-17T09:51:50.165Z,71.48
2019-01-17T09:53:42.049Z,69.78
2019-01-17T09:54:42.054Z,69.59
2019-01-17T09:56:33.983Z,68.44
2019-01-17T09:57:33.965Z,69.30
2019-01-17T09:59:25.908Z,74.24
2019-01-17T10:00:25.889Z,73.00
2019-01-17T10:02:17.804Z,72.88
2019-01-17T10:03:17.785Z,72.30
2019-01-17T10:05:09.691Z,72.88
2019-01-17T10:06:09.698Z,73.07
2019-01-17T10:08:01.621Z,73.44
2019-01-17T10:09:01.605Z,74.11
2019-01-17T10:10:53.532Z,73.72
2019-01-17T10:11:53.535Z,75.05
2019-01-17T10:13:45.465Z,74.39
2019-01-17T10:14:45.456Z,74.01
2019-01-17T10:16:37.387Z,73.82
2019-01-17T10:17:37.382Z,74.20
2019-01-17T10:19:29.290Z,74.39
2019-01-17T10:20:29.287Z,75.43
2019-01-17T10:22:21.200Z,76.20
2019-01-17T10:23:21.185Z,77.52
2019-01-17T10:25:13.092Z,75.34
2019-01-17T10:26:13.100Z,75.15
2019-01-17T10:28:05.025Z,74.30
2019-01-17T10:29:05.006Z,75.24
2019-01-17T10:30:56.955Z,74.68
2019-01-17T10:31:56.928Z,73.82
2019-01-17T10:33:48.836Z,74.68
2019-01-17T10:34:48.829Z,74.77
2019-01-17T10:36:40.744Z,75.05
2019-01-17T10:37:40.733Z,74.49
2019-01-17T10:39:32.663Z,74.39
2019-01-17T10:40:32.689Z,74.20
2019-01-17T10:42:24.579Z,74.11
2019-01-17T10:43:24.577Z,73.92
2019-01-17T10:45:16.456Z,75.38
2019-01-17T10:46:16.520Z,75.47
2019-01-17T10:48:08.395Z,76.42
2019-01-17T10:49:08.380Z,76.14
2019-01-17T10:51:00.786Z,75.19
2019-01-17T10:52:00.800Z,75.38
2019-01-17T10:53:52.708Z,73.38
2019-01-17T10:54:52.695Z,73.76
2019-01-17T10:56:44.617Z,73.67
2019-01-17T10:57:44.621Z,73.44
2019-01-17T10:59:36.672Z,73.35
2019-01-17T11:00:36.624Z,72.68
2019-01-17T11:02:28.544Z,71.20
2019-01-17T11:03:28.546Z,71.83
2019-01-17T11:05:20.477Z,70.59
2019-01-17T11:06:20.459Z,69.65
2019-01-17T11:08:12.399Z,69.46
2019-01-17T11:09:12.371Z,69.36
2019-01-17T11:11:04.294Z,69.74
2019-01-17T11:12:04.321Z,69.65
2019-01-17T11:13:56.201Z,69.17
2019-01-17T11:14:56.185Z,69.96
2019-01-17T11:16:48.085Z,71.01
2019-01-17T11:17:48.094Z,72.91
2019-01-17T11:19:40.015Z,72.02
2019-01-17T11:20:40.047Z,71.86
2019-01-17T11:22:31.910Z,78.51
2019-01-17T11:23:31.908Z,83.40
2019-01-17T11:25:23.833Z,84.83
2019-01-17T11:26:23.821Z,87.05
2019-01-17T11:28:15.727Z,85.40
2019-01-17T11:29:15.735Z,85.11
2019-01-17T11:31:07.649Z,86.72
2019-01-17T11:32:07.632Z,88.81
2019-01-17T11:34:00.124Z,89.20
2019-01-17T11:35:00.133Z,88.72
2019-01-17T11:36:52.481Z,88.81
2019-01-17T11:37:52.477Z,87.77
2019-01-17T11:39:44.454Z,87.39
2019-01-17T11:40:44.414Z,87.77
2019-01-17T11:42:36.313Z,89.43
2019-01-17T11:43:36.390Z,89.14
2019-01-17T11:45:28.242Z,88.72
2019-01-17T11:46:28.227Z,89.39
2019-01-17T11:48:20.135Z,90.00
2019-01-17T11:49:20.145Z,89.67
2019-01-17T11:51:12.065Z,88.43
2019-01-17T11:52:12.051Z,88.24
2019-01-17T11:54:03.959Z,87.39
2019-01-17T11:55:03.960Z,88.81
2019-01-17T11:56:55.910Z,88.24
2019-01-17T11:57:55.874Z,88.62
2019-01-17T11:59:47.865Z,89.00
2019-01-17T12:00:47.785Z,89.10
2019-01-17T12:02:39.807Z,86.82
2019-01-17T12:03:39.691Z,86.07
2019-01-17T12:05:31.616Z,83.50
2019-01-17T12:06:31.596Z,83.69
2019-01-17T12:08:23.507Z,84.45
2019-01-17T12:09:23.537Z,83.40
2019-01-17T12:11:15.453Z,84.26
2019-01-17T12:12:15.462Z,84.55
2019-01-17T12:14:07.346Z,85.78
2019-01-17T12:15:07.349Z,87.01
2019-01-17T12:16:59.272Z,86.91
2019-01-17T12:17:59.257Z,87.96
2019-01-17T12:19:51.169Z,87.11
2019-01-17T12:20:51.175Z,86.82
2019-01-17T12:22:43.141Z,88.06
2019-01-17T12:23:43.102Z,88.72
2019-01-17T12:25:35.069Z,88.15
2019-01-17T12:26:35.006Z,87.49
2019-01-17T12:28:28.418Z,88.15
2019-01-17T12:29:28.423Z,89.00
2019-01-17T12:31:20.321Z,87.68
2019-01-17T12:32:20.322Z,86.35
2019-01-17T12:34:12.245Z,87.20
2019-01-17T12:35:12.232Z,86.44
2019-01-17T12:37:04.193Z,86.16
2019-01-17T12:38:04.179Z,85.59
2019-01-17T12:39:56.058Z,83.78
2019-01-17T12:40:56.060Z,82.74
2019-01-17T12:42:48.479Z,83.12
2019-01-17T12:43:48.495Z,82.84
2019-01-17T12:45:40.388Z,82.74
2019-01-17T12:46:40.375Z,81.60
2019-01-17T12:48:32.909Z,83.59
2019-01-17T12:49:32.897Z,82.93
2019-01-17T12:51:24.816Z,84.17
2019-01-17T12:52:24.818Z,85.11
2019-01-17T12:54:17.241Z,85.30
2019-01-17T12:55:17.225Z,84.36
2019-01-17T12:57:09.174Z,85.30
2019-01-17T12:58:09.154Z,84.45
2019-01-17T13:00:07.567Z,86.82
2019-01-17T13:01:01.064Z,87.01
2019-01-17T13:02:52.998Z,87.30
2019-01-17T13:03:52.982Z,88.43
2019-01-17T13:05:44.889Z,88.81
2019-01-17T13:06:44.898Z,89.00
2019-01-17T13:08:37.325Z,89.39
2019-01-17T13:09:37.328Z,89.00
2019-01-17T13:10:37.382Z,87.01
2019-01-17T13:11:37.325Z,87.49
2019-01-17T13:12:37.344Z,86.91
2019-01-17T13:13:37.347Z,86.07
2019-01-17T13:14:37.370Z,87.96
2019-01-17T13:15:37.374Z,86.91
2019-01-17T13:16:37.389Z,85.40
2019-01-17T13:17:37.398Z,86.82
2019-01-17T13:18:37.416Z,88.53
2019-01-17T13:19:37.439Z,90.05
2019-01-17T13:20:37.435Z,89.48
2019-01-17T13:21:37.447Z,88.43
2019-01-17T13:22:37.460Z,87.39
2019-01-17T13:23:37.471Z,88.81
2019-01-17T13:24:37.485Z,89.48
2019-01-17T13:25:37.494Z,89.20
2019-01-17T13:26:37.511Z,87.58
2019-01-17T13:27:37.528Z,87.87
2019-01-17T13:28:37.581Z,87.49
2019-01-17T13:29:37.552Z,87.39
2019-01-17T13:30:37.561Z,87.58
2019-01-17T13:31:37.566Z,89.95
2019-01-17T13:32:37.583Z,91.75
2019-01-17T13:33:37.595Z,91.85
2019-01-17T13:34:37.642Z,91.38
2019-01-17T13:35:37.624Z,90.52
2019-01-17T13:36:40.569Z,91.56
2019-01-17T13:37:37.648Z,91.94
2019-01-17T13:38:37.654Z,90.62
2019-01-17T13:39:37.671Z,90.52
2019-01-17T13:40:37.715Z,88.62
2019-01-17T13:41:37.690Z,87.96
2019-01-17T13:42:37.701Z,87.77
2019-01-17T13:43:37.713Z,87.77
2019-01-17T13:44:37.728Z,86.91
2019-01-17T13:45:37.738Z,88.43
2019-01-17T13:46:37.752Z,89.00
2019-01-17T13:47:37.763Z,88.34
2019-01-17T13:48:37.774Z,89.00
2019-01-17T13:49:37.792Z,89.00
2019-01-17T13:50:37.802Z,88.24
2019-01-17T13:51:37.809Z,87.49
2019-01-17T13:52:37.822Z,86.63
2019-01-17T13:53:37.865Z,86.44
2019-01-17T13:54:37.850Z,87.20
2019-01-17T13:55:37.861Z,88.06
2019-01-17T13:56:37.874Z,87.20
2019-01-17T13:57:37.880Z,87.01
2019-01-17T13:58:37.927Z,86.91
2019-01-17T13:59:37.908Z,86.54
2019-01-17T14:00:37.916Z,86.63
2019-01-17T14:01:37.938Z,87.58
2019-01-17T14:02:37.970Z,87.58
2019-01-17T14:03:37.957Z,87.49
2019-01-17T14:04:37.976Z,87.68
2019-01-17T14:05:37.980Z,87.87
2019-01-17T14:06:37.990Z,88.43
2019-01-17T14:07:38.012Z,87.77
2019-01-17T14:08:38.020Z,88.53
2019-01-17T14:09:38.056Z,88.06
2019-01-17T14:10:38.043Z,87.96
2019-01-17T14:11:38.052Z,88.43
2019-01-17T14:12:38.063Z,88.91
2019-01-17T14:13:38.074Z,90.52
2019-01-17T14:14:38.088Z,91.66
2019-01-17T14:15:38.099Z,92.61
2019-01-17T14:16:38.111Z,91.75
2019-01-17T14:17:38.144Z,91.85
2019-01-17T14:18:38.137Z,91.75
2019-01-17T14:19:38.149Z,90.52
2019-01-17T14:20:38.164Z,92.80
2019-01-17T14:21:38.170Z,91.00
2019-01-17T14:22:38.185Z,88.91
2019-01-17T14:23:38.230Z,89.39
2019-01-17T14:24:38.206Z,89.67
2019-01-17T14:25:38.223Z,90.62
2019-01-17T14:26:38.236Z,91.38
2019-01-17T14:27:38.245Z,92.61
2019-01-17T14:28:38.258Z,92.23
2019-01-17T14:29:38.271Z,93.27
2019-01-17T14:30:38.294Z,94.51
2019-01-17T14:31:38.296Z,94.27
2019-01-17T14:32:38.304Z,93.13
2019-01-17T14:33:38.317Z,92.42
2019-01-17T14:34:38.335Z,93.27
2019-01-17T14:35:38.343Z,92.80
2019-01-17T14:36:38.360Z,94.23
2019-01-17T14:37:38.514Z,94.79
2019-01-17T14:38:38.382Z,95.55
2019-01-17T14:39:38.392Z,94.42
2019-01-17T14:40:38.410Z,94.79
2019-01-17T14:41:38.420Z,96.31
2019-01-17T14:42:38.427Z,95.65
2019-01-17T14:43:38.819Z,94.79
2019-01-17T14:44:38.455Z,96.31
2019-01-17T14:45:38.471Z,99.91
2019-01-17T14:46:38.477Z,99.35
2019-01-17T14:47:38.491Z,98.87
2019-01-17T14:48:38.524Z,98.78
2019-01-17T14:49:38.516Z,97.83
2019-01-17T14:50:38.527Z,96.50
2019-01-17T14:51:38.536Z,96.88
2019-01-17T14:52:38.551Z,98.30
2019-01-17T14:53:38.560Z,97.17
2019-01-17T14:54:38.570Z,97.45
2019-01-17T14:55:38.587Z,99.54
2019-01-17T14:56:38.598Z,99.44
2019-01-17T14:57:38.613Z,99.54
2019-01-17T14:58:38.621Z,98.78
2019-01-17T14:59:38.633Z,98.78
2019-01-17T15:00:38.652Z,97.83
2019-01-17T15:01:38.663Z,96.97
2019-01-17T15:02:38.690Z,95.17
2019-01-17T15:03:38.681Z,95.55
2019-01-17T15:04:38.689Z,94.98
2019-01-17T15:05:38.713Z,96.88
2019-01-17T15:06:38.720Z,97.07
2019-01-17T15:07:38.728Z,96.50
2019-01-17T15:08:38.739Z,97.74
2019-01-17T15:09:38.754Z,96.31
2019-01-17T15:10:38.767Z,96.50
2019-01-17T15:11:38.778Z,98.21
2019-01-17T15:12:38.833Z,98.40
2019-01-17T15:13:38.801Z,97.26
2019-01-17T15:14:38.823Z,96.22
2019-01-17T15:15:38.827Z,97.92
2019-01-17T15:16:38.842Z,97.74
2019-01-17T15:17:38.849Z,98.49
2019-01-17T15:18:38.871Z,98.78
2019-01-17T15:19:38.877Z,97.64
2019-01-17T15:20:38.899Z,97.59
2019-01-17T15:21:38.894Z,97.26
2019-01-17T15:22:38.917Z,98.87
2019-01-17T15:23:38.922Z,99.99
2019-01-17T15:24:38.932Z,99.73
2019-01-17T15:25:38.946Z,99.35
2019-01-17T15:26:38.961Z,99.68
2019-01-17T15:27:38.969Z,99.35
2019-01-17T15:28:38.981Z,99.99
2019-01-17T15:29:38.989Z,99.30
2019-01-17T15:30:39.009Z,99.99
2019-01-17T15:31:39.024Z,99.99
2019-01-17T15:32:39.028Z,99.99
2019-01-17T15:33:39.046Z,99.99
2019-01-17T15:34:39.053Z,99.01
2019-01-17T15:35:39.066Z,98.63
2019-01-17T15:36:39.087Z,98.54
2019-01-17T15:37:39.089Z,97.78
2019-01-17T15:38:39.102Z,97.40
2019-01-17T15:39:39.123Z,98.35
2019-01-17T15:40:39.124Z,99.30
2019-01-17T15:41:39.134Z,97.88
2019-01-17T15:42:39.156Z,97.78
2019-01-17T15:43:39.159Z,97.02
2019-01-17T15:44:39.170Z,96.55
2019-01-17T15:45:39.183Z,96.31
2019-01-17T15:46:39.194Z,96.26
2019-01-17T15:47:39.254Z,96.55
2019-01-17T15:48:39.222Z,96.78
2019-01-17T15:49:39.232Z,96.73
2019-01-17T15:50:39.238Z,96.59
2019-01-17T15:51:39.253Z,95.88
2019-01-17T15:52:39.264Z,96.92
2019-01-17T15:53:39.273Z,97.69
2019-01-17T15:54:39.289Z,96.36
2019-01-17T15:55:39.299Z,95.93
2019-01-17T15:56:39.310Z,97.54
2019-01-17T15:57:39.325Z,97.45
2019-01-17T15:58:39.335Z,96.59
2019-01-17T15:59:39.367Z,96.03
2019-01-17T16:00:39.360Z,97.16
2019-01-17T16:01:39.380Z,96.88
2019-01-17T16:02:39.379Z,96.97
2019-01-17T16:03:39.395Z,96.12
2019-01-17T16:04:39.403Z,96.12
2019-01-17T16:05:39.416Z,96.41
2019-01-17T16:06:39.428Z,97.54
2019-01-17T16:07:39.438Z,97.54
2019-01-17T16:08:39.452Z,96.88
2019-01-17T16:09:39.464Z,98.68
2019-01-17T16:10:39.473Z,98.39
2019-01-17T16:11:39.486Z,96.88
2019-01-17T16:12:39.502Z,97.73
2019-01-17T16:13:39.572Z,98.21